Aviation Digital Data Service (ADDS)

Output produced by METARs form (2107 UTC 27 February 2015)
found at http://aviationweather.gov/adds/metars/
 
KFAY 271720Z 2718/2818 01007KT P6SM SKC 
     FM272000 01008KT P6SM SCT030 SCT050 
     FM280800 04010KT 1SM BR BKN005